sensor_id;sensor_type;location;lat;lon;timestamp;temperature;humidity
19060;DHT22;9663;48.996;8.334;2024-02-23T00:00:48;12.30;59.80
19060;DHT22;9663;48.996;8.334;2024-02-23T00:03:14;12.30;59.70
19060;DHT22;9663;48.996;8.334;2024-02-23T00:05:40;12.20;59.70
19060;DHT22;9663;48.996;8.334;2024-02-23T00:08:07;12.20;59.60
19060;DHT22;9663;48.996;8.334;2024-02-23T00:10:34;12.20;59.60
19060;DHT22;9663;48.996;8.334;2024-02-23T00:13:00;12.20;59.20
19060;DHT22;9663;48.996;8.334;2024-02-23T00:15:26;12.20;59.50
19060;DHT22;9663;48.996;8.334;2024-02-23T00:17:52;12.20;59.60
19060;DHT22;9663;48.996;8.334;2024-02-23T00:20:17;12.10;59.40
19060;DHT22;9663;48.996;8.334;2024-02-23T00:22:43;12.10;59.40
19060;DHT22;9663;48.996;8.334;2024-02-23T00:25:09;12.10;59.40
19060;DHT22;9663;48.996;8.334;2024-02-23T00:27:35;12.10;59.30
19060;DHT22;9663;48.996;8.334;2024-02-23T00:30:00;12.10;59.20
19060;DHT22;9663;48.996;8.334;2024-02-23T00:32:26;12.10;59.30
19060;DHT22;9663;48.996;8.334;2024-02-23T00:34:51;12.00;59.30
19060;DHT22;9663;48.996;8.334;2024-02-23T00:37:17;12.00;59.10
19060;DHT22;9663;48.996;8.334;2024-02-23T00:39:43;12.00;59.30
19060;DHT22;9663;48.996;8.334;2024-02-23T00:42:08;11.90;59.20
19060;DHT22;9663;48.996;8.334;2024-02-23T00:44:34;11.90;59.30
19060;DHT22;9663;48.996;8.334;2024-02-23T00:47:00;11.90;59.20
19060;DHT22;9663;48.996;8.334;2024-02-23T00:49:30;11.90;59.40
19060;DHT22;9663;48.996;8.334;2024-02-23T00:51:56;11.90;59.20
19060;DHT22;9663;48.996;8.334;2024-02-23T00:54:22;11.90;59.20
19060;DHT22;9663;48.996;8.334;2024-02-23T00:56:48;11.90;59.20
19060;DHT22;9663;48.996;8.334;2024-02-23T00:59:13;11.90;59.30
19060;DHT22;9663;48.996;8.334;2024-02-23T01:01:39;11.80;59.20
19060;DHT22;9663;48.996;8.334;2024-02-23T01:04:04;11.80;59.10
19060;DHT22;9663;48.996;8.334;2024-02-23T01:06:30;11.80;59.10
19060;DHT22;9663;48.996;8.334;2024-02-23T01:08:56;11.80;59.20
19060;DHT22;9663;48.996;8.334;2024-02-23T01:11:21;11.80;59.20
19060;DHT22;9663;48.996;8.334;2024-02-23T01:13:47;11.80;59.10
19060;DHT22;9663;48.996;8.334;2024-02-23T01:16:12;11.70;58.70
19060;DHT22;9663;48.996;8.334;2024-02-23T01:18:38;11.70;58.80
19060;DHT22;9663;48.996;8.334;2024-02-23T01:21:04;11.70;59.00
19060;DHT22;9663;48.996;8.334;2024-02-23T01:23:29;11.70;59.00
19060;DHT22;9663;48.996;8.334;2024-02-23T01:25:55;11.60;58.80
19060;DHT22;9663;48.996;8.334;2024-02-23T01:28:21;11.60;58.60
19060;DHT22;9663;48.996;8.334;2024-02-23T01:30:47;11.60;58.90
19060;DHT22;9663;48.996;8.334;2024-02-23T01:33:12;11.60;58.90
19060;DHT22;9663;48.996;8.334;2024-02-23T01:35:38;11.60;59.10
19060;DHT22;9663;48.996;8.334;2024-02-23T01:38:04;11.60;59.00
19060;DHT22;9663;48.996;8.334;2024-02-23T01:40:30;11.50;59.00
19060;DHT22;9663;48.996;8.334;2024-02-23T01:43:03;11.50;59.00
19060;DHT22;9663;48.996;8.334;2024-02-23T01:45:30;11.50;59.10
19060;DHT22;9663;48.996;8.334;2024-02-23T01:47:57;11.50;58.80
19060;DHT22;9663;48.996;8.334;2024-02-23T01:50:24;11.50;59.10
19060;DHT22;9663;48.996;8.334;2024-02-23T01:52:51;11.60;59.10
19060;DHT22;9663;48.996;8.334;2024-02-23T01:55:19;11.50;58.90
19060;DHT22;9663;48.996;8.334;2024-02-23T01:57:46;11.50;58.90
19060;DHT22;9663;48.996;8.334;2024-02-23T02:00:16;11.50;58.90
19060;DHT22;9663;48.996;8.334;2024-02-23T02:02:44;11.50;58.90
19060;DHT22;9663;48.996;8.334;2024-02-23T02:05:10;11.50;58.70
19060;DHT22;9663;48.996;8.334;2024-02-23T02:07:37;11.50;58.70
19060;DHT22;9663;48.996;8.334;2024-02-23T02:10:06;11.50;58.40
19060;DHT22;9663;48.996;8.334;2024-02-23T02:12:33;11.50;58.70
19060;DHT22;9663;48.996;8.334;2024-02-23T02:14:59;11.50;58.70
19060;DHT22;9663;48.996;8.334;2024-02-23T02:17:27;11.50;58.60
19060;DHT22;9663;48.996;8.334;2024-02-23T02:19:53;11.50;58.60
19060;DHT22;9663;48.996;8.334;2024-02-23T02:22:19;11.60;58.80
19060;DHT22;9663;48.996;8.334;2024-02-23T02:24:45;11.60;58.80
19060;DHT22;9663;48.996;8.334;2024-02-23T02:27:12;11.50;59.20
19060;DHT22;9663;48.996;8.334;2024-02-23T02:29:38;11.60;58.60
19060;DHT22;9663;48.996;8.334;2024-02-23T02:32:04;11.50;58.40
19060;DHT22;9663;48.996;8.334;2024-02-23T02:34:30;11.60;58.60
19060;DHT22;9663;48.996;8.334;2024-02-23T02:36:55;11.50;58.70
19060;DHT22;9663;48.996;8.334;2024-02-23T02:39:21;11.50;58.50
19060;DHT22;9663;48.996;8.334;2024-02-23T02:41:50;11.50;58.60
19060;DHT22;9663;48.996;8.334;2024-02-23T02:44:16;11.50;58.60
19060;DHT22;9663;48.996;8.334;2024-02-23T02:46:42;11.50;58.70
19060;DHT22;9663;48.996;8.334;2024-02-23T02:49:08;11.50;58.60
19060;DHT22;9663;48.996;8.334;2024-02-23T02:51:34;11.50;58.60
19060;DHT22;9663;48.996;8.334;2024-02-23T02:54:00;11.50;58.70
19060;DHT22;9663;48.996;8.334;2024-02-23T02:56:26;11.40;58.50
19060;DHT22;9663;48.996;8.334;2024-02-23T02:58:51;11.40;58.70
19060;DHT22;9663;48.996;8.334;2024-02-23T03:01:17;11.40;58.60
19060;DHT22;9663;48.996;8.334;2024-02-23T03:03:43;11.40;58.50
19060;DHT22;9663;48.996;8.334;2024-02-23T03:06:08;11.50;58.50
19060;DHT22;9663;48.996;8.334;2024-02-23T03:08:34;11.40;58.40
19060;DHT22;9663;48.996;8.334;2024-02-23T03:11:00;11.40;58.60
19060;DHT22;9663;48.996;8.334;2024-02-23T03:13:26;11.40;58.50
19060;DHT22;9663;48.996;8.334;2024-02-23T03:15:51;11.40;58.50
19060;DHT22;9663;48.996;8.334;2024-02-23T03:18:17;11.30;58.40
19060;DHT22;9663;48.996;8.334;2024-02-23T03:20:43;11.30;58.00
19060;DHT22;9663;48.996;8.334;2024-02-23T03:23:11;11.20;58.10
19060;DHT22;9663;48.996;8.334;2024-02-23T03:25:37;11.20;58.20
19060;DHT22;9663;48.996;8.334;2024-02-23T03:28:03;11.20;58.20
19060;DHT22;9663;48.996;8.334;2024-02-23T03:30:28;11.10;58.20
19060;DHT22;9663;48.996;8.334;2024-02-23T03:32:54;11.10;58.30
19060;DHT22;9663;48.996;8.334;2024-02-23T03:35:20;11.10;58.20
19060;DHT22;9663;48.996;8.334;2024-02-23T03:37:45;11.10;58.20
19060;DHT22;9663;48.996;8.334;2024-02-23T03:40:11;11.10;58.30
19060;DHT22;9663;48.996;8.334;2024-02-23T03:42:38;11.10;58.30
19060;DHT22;9663;48.996;8.334;2024-02-23T03:45:04;11.10;58.20
19060;DHT22;9663;48.996;8.334;2024-02-23T03:47:30;11.20;58.20
19060;DHT22;9663;48.996;8.334;2024-02-23T03:49:56;11.20;58.20
19060;DHT22;9663;48.996;8.334;2024-02-23T03:52:22;11.20;58.20
19060;DHT22;9663;48.996;8.334;2024-02-23T03:54:48;11.20;58.20
19060;DHT22;9663;48.996;8.334;2024-02-23T03:57:14;11.20;58.10
19060;DHT22;9663;48.996;8.334;2024-02-23T03:59:41;11.20;58.10
19060;DHT22;9663;48.996;8.334;2024-02-23T04:02:16;11.30;58.20
19060;DHT22;9663;48.996;8.334;2024-02-23T04:04:42;11.30;58.10
19060;DHT22;9663;48.996;8.334;2024-02-23T04:07:08;11.30;58.00
19060;DHT22;9663;48.996;8.334;2024-02-23T04:09:34;11.30;58.00
19060;DHT22;9663;48.996;8.334;2024-02-23T04:11:59;11.30;58.10
19060;DHT22;9663;48.996;8.334;2024-02-23T04:14:25;11.30;58.00
19060;DHT22;9663;48.996;8.334;2024-02-23T04:16:51;11.30;58.00
19060;DHT22;9663;48.996;8.334;2024-02-23T04:19:16;11.30;58.00
19060;DHT22;9663;48.996;8.334;2024-02-23T04:21:42;11.30;58.00
19060;DHT22;9663;48.996;8.334;2024-02-23T04:24:08;11.30;58.00
19060;DHT22;9663;48.996;8.334;2024-02-23T04:26:34;11.30;58.00
19060;DHT22;9663;48.996;8.334;2024-02-23T04:28:59;11.30;58.00
19060;DHT22;9663;48.996;8.334;2024-02-23T04:31:25;11.30;57.90
19060;DHT22;9663;48.996;8.334;2024-02-23T04:33:51;11.30;58.00
19060;DHT22;9663;48.996;8.334;2024-02-23T04:36:19;11.30;57.90
19060;DHT22;9663;48.996;8.334;2024-02-23T04:38:48;11.30;57.70
19060;DHT22;9663;48.996;8.334;2024-02-23T04:41:14;11.30;57.80
19060;DHT22;9663;48.996;8.334;2024-02-23T04:43:40;11.20;57.60
19060;DHT22;9663;48.996;8.334;2024-02-23T04:46:05;11.20;58.20
19060;DHT22;9663;48.996;8.334;2024-02-23T04:48:31;11.20;57.70
19060;DHT22;9663;48.996;8.334;2024-02-23T04:50:57;11.10;57.50
19060;DHT22;9663;48.996;8.334;2024-02-23T04:53:23;11.10;57.60
19060;DHT22;9663;48.996;8.334;2024-02-23T04:55:49;11.10;57.50
19060;DHT22;9663;48.996;8.334;2024-02-23T04:58:14;11.10;57.50
19060;DHT22;9663;48.996;8.334;2024-02-23T05:00:40;11.10;57.60
19060;DHT22;9663;48.996;8.334;2024-02-23T05:03:06;11.10;57.60
19060;DHT22;9663;48.996;8.334;2024-02-23T05:05:32;11.10;57.40
19060;DHT22;9663;48.996;8.334;2024-02-23T05:07:58;11.10;57.50
19060;DHT22;9663;48.996;8.334;2024-02-23T05:10:24;11.10;57.50
19060;DHT22;9663;48.996;8.334;2024-02-23T05:12:50;11.10;57.50
19060;DHT22;9663;48.996;8.334;2024-02-23T05:15:16;11.10;57.50
19060;DHT22;9663;48.996;8.334;2024-02-23T05:17:42;11.10;57.40
19060;DHT22;9663;48.996;8.334;2024-02-23T05:20:08;11.10;57.50
19060;DHT22;9663;48.996;8.334;2024-02-23T05:22:36;11.10;57.40
19060;DHT22;9663;48.996;8.334;2024-02-23T05:25:03;11.10;57.40
19060;DHT22;9663;48.996;8.334;2024-02-23T05:27:30;11.00;57.30
19060;DHT22;9663;48.996;8.334;2024-02-23T05:29:56;11.00;57.40
19060;DHT22;9663;48.996;8.334;2024-02-23T05:32:22;11.00;57.40
19060;DHT22;9663;48.996;8.334;2024-02-23T05:34:48;11.00;57.40
19060;DHT22;9663;48.996;8.334;2024-02-23T05:37:17;11.00;57.40
19060;DHT22;9663;48.996;8.334;2024-02-23T05:39:43;11.00;57.40
19060;DHT22;9663;48.996;8.334;2024-02-23T05:42:09;10.90;57.40
19060;DHT22;9663;48.996;8.334;2024-02-23T05:44:36;10.90;57.40
19060;DHT22;9663;48.996;8.334;2024-02-23T05:47:01;10.80;57.40
19060;DHT22;9663;48.996;8.334;2024-02-23T05:49:27;10.80;57.30
19060;DHT22;9663;48.996;8.334;2024-02-23T05:51:53;10.70;57.30
19060;DHT22;9663;48.996;8.334;2024-02-23T05:54:18;10.70;57.30
19060;DHT22;9663;48.996;8.334;2024-02-23T05:56:44;10.60;57.30
19060;DHT22;9663;48.996;8.334;2024-02-23T05:59:11;10.60;57.40
19060;DHT22;9663;48.996;8.334;2024-02-23T06:01:37;10.50;57.30
19060;DHT22;9663;48.996;8.334;2024-02-23T06:04:03;10.50;57.30
19060;DHT22;9663;48.996;8.334;2024-02-23T06:06:28;10.40;57.30
19060;DHT22;9663;48.996;8.334;2024-02-23T06:08:54;10.30;57.40
19060;DHT22;9663;48.996;8.334;2024-02-23T06:11:20;10.30;58.10
19060;DHT22;9663;48.996;8.334;2024-02-23T06:13:46;10.20;57.40
19060;DHT22;9663;48.996;8.334;2024-02-23T06:16:12;10.20;57.40
19060;DHT22;9663;48.996;8.334;2024-02-23T06:18:38;10.20;57.40
19060;DHT22;9663;48.996;8.334;2024-02-23T06:21:13;10.10;57.40
19060;DHT22;9663;48.996;8.334;2024-02-23T06:23:40;10.10;57.30
19060;DHT22;9663;48.996;8.334;2024-02-23T06:26:07;10.10;57.50
19060;DHT22;9663;48.996;8.334;2024-02-23T06:28:33;10.10;57.50
19060;DHT22;9663;48.996;8.334;2024-02-23T06:30:58;10.10;57.60
19060;DHT22;9663;48.996;8.334;2024-02-23T06:33:24;10.10;57.70
19060;DHT22;9663;48.996;8.334;2024-02-23T06:35:50;10.10;57.60
19060;DHT22;9663;48.996;8.334;2024-02-23T06:38:17;10.10;57.70
19060;DHT22;9663;48.996;8.334;2024-02-23T06:40:43;10.10;58.40
19060;DHT22;9663;48.996;8.334;2024-02-23T06:43:09;10.10;57.80
19060;DHT22;9663;48.996;8.334;2024-02-23T06:45:35;10.20;57.90
19060;DHT22;9663;48.996;8.334;2024-02-23T06:48:00;10.20;57.80
19060;DHT22;9663;48.996;8.334;2024-02-23T06:50:26;10.20;57.90
19060;DHT22;9663;48.996;8.334;2024-02-23T06:52:51;10.20;57.90
19060;DHT22;9663;48.996;8.334;2024-02-23T06:55:17;10.20;58.00
19060;DHT22;9663;48.996;8.334;2024-02-23T06:57:43;10.20;58.00
19060;DHT22;9663;48.996;8.334;2024-02-23T07:00:09;10.20;57.90
19060;DHT22;9663;48.996;8.334;2024-02-23T07:02:35;10.20;57.90
19060;DHT22;9663;48.996;8.334;2024-02-23T07:05:03;10.20;58.00
19060;DHT22;9663;48.996;8.334;2024-02-23T07:07:32;10.20;58.00
19060;DHT22;9663;48.996;8.334;2024-02-23T07:10:02;10.20;57.90
19060;DHT22;9663;48.996;8.334;2024-02-23T07:12:28;10.20;57.90
19060;DHT22;9663;48.996;8.334;2024-02-23T07:14:57;10.20;57.90
19060;DHT22;9663;48.996;8.334;2024-02-23T07:17:23;10.20;57.80
19060;DHT22;9663;48.996;8.334;2024-02-23T07:19:49;10.20;57.80
19060;DHT22;9663;48.996;8.334;2024-02-23T07:22:16;10.10;57.80
19060;DHT22;9663;48.996;8.334;2024-02-23T07:24:46;10.20;57.90
19060;DHT22;9663;48.996;8.334;2024-02-23T07:27:12;10.20;57.90
19060;DHT22;9663;48.996;8.334;2024-02-23T07:29:37;10.20;57.90
19060;DHT22;9663;48.996;8.334;2024-02-23T07:32:04;10.20;57.90
19060;DHT22;9663;48.996;8.334;2024-02-23T07:34:30;10.20;57.90
19060;DHT22;9663;48.996;8.334;2024-02-23T07:36:56;10.20;57.90
19060;DHT22;9663;48.996;8.334;2024-02-23T07:39:22;10.20;57.90
19060;DHT22;9663;48.996;8.334;2024-02-23T07:41:48;10.30;58.00
19060;DHT22;9663;48.996;8.334;2024-02-23T07:44:13;10.30;58.00
19060;DHT22;9663;48.996;8.334;2024-02-23T07:46:39;10.30;58.00
19060;DHT22;9663;48.996;8.334;2024-02-23T07:49:05;10.40;58.10
19060;DHT22;9663;48.996;8.334;2024-02-23T07:51:35;10.50;58.10
19060;DHT22;9663;48.996;8.334;2024-02-23T07:54:00;10.60;58.10
19060;DHT22;9663;48.996;8.334;2024-02-23T07:56:27;10.70;58.10
19060;DHT22;9663;48.996;8.334;2024-02-23T07:58:54;10.80;58.10
19060;DHT22;9663;48.996;8.334;2024-02-23T08:01:19;10.90;58.00
19060;DHT22;9663;48.996;8.334;2024-02-23T08:03:45;11.00;58.00
19060;DHT22;9663;48.996;8.334;2024-02-23T08:06:11;11.10;58.00
19060;DHT22;9663;48.996;8.334;2024-02-23T08:08:38;11.20;57.90
19060;DHT22;9663;48.996;8.334;2024-02-23T08:11:04;11.20;57.70
19060;DHT22;9663;48.996;8.334;2024-02-23T08:13:30;11.30;57.70
19060;DHT22;9663;48.996;8.334;2024-02-23T08:15:57;11.40;57.40
19060;DHT22;9663;48.996;8.334;2024-02-23T08:18:23;11.60;57.50
19060;DHT22;9663;48.996;8.334;2024-02-23T08:20:49;11.70;57.50
19060;DHT22;9663;48.996;8.334;2024-02-23T08:23:15;11.80;57.50
19060;DHT22;9663;48.996;8.334;2024-02-23T08:25:41;12.00;57.40
19060;DHT22;9663;48.996;8.334;2024-02-23T08:28:07;12.10;57.20
19060;DHT22;9663;48.996;8.334;2024-02-23T08:30:33;12.30;57.10
19060;DHT22;9663;48.996;8.334;2024-02-23T08:32:59;12.40;56.80
19060;DHT22;9663;48.996;8.334;2024-02-23T08:35:25;12.50;56.60
19060;DHT22;9663;48.996;8.334;2024-02-23T08:37:51;12.60;56.10
19060;DHT22;9663;48.996;8.334;2024-02-23T08:40:17;12.70;56.20
19060;DHT22;9663;48.996;8.334;2024-02-23T08:42:43;12.70;56.20
19060;DHT22;9663;48.996;8.334;2024-02-23T08:45:09;12.80;56.10
19060;DHT22;9663;48.996;8.334;2024-02-23T08:47:37;12.90;56.10
19060;DHT22;9663;48.996;8.334;2024-02-23T08:50:03;13.00;56.10
19060;DHT22;9663;48.996;8.334;2024-02-23T08:52:30;13.10;56.10
19060;DHT22;9663;48.996;8.334;2024-02-23T08:54:55;13.20;55.40
19060;DHT22;9663;48.996;8.334;2024-02-23T08:57:22;13.40;55.70
19060;DHT22;9663;48.996;8.334;2024-02-23T08:59:51;13.60;55.20
19060;DHT22;9663;48.996;8.334;2024-02-23T09:02:17;13.80;55.00
19060;DHT22;9663;48.996;8.334;2024-02-23T09:04:42;14.00;54.80
19060;DHT22;9663;48.996;8.334;2024-02-23T09:07:10;14.10;54.40
19060;DHT22;9663;48.996;8.334;2024-02-23T09:09:36;14.20;53.90
19060;DHT22;9663;48.996;8.334;2024-02-23T09:12:02;14.20;53.70
19060;DHT22;9663;48.996;8.334;2024-02-23T09:14:27;14.20;53.80
19060;DHT22;9663;48.996;8.334;2024-02-23T09:16:53;14.20;53.30
19060;DHT22;9663;48.996;8.334;2024-02-23T09:19:19;14.20;53.30
19060;DHT22;9663;48.996;8.334;2024-02-23T09:21:45;14.20;53.30
19060;DHT22;9663;48.996;8.334;2024-02-23T09:24:12;14.30;53.40
19060;DHT22;9663;48.996;8.334;2024-02-23T09:26:38;14.30;53.60
19060;DHT22;9663;48.996;8.334;2024-02-23T09:29:05;14.30;53.60
19060;DHT22;9663;48.996;8.334;2024-02-23T09:31:31;14.30;52.70
19060;DHT22;9663;48.996;8.334;2024-02-23T09:33:57;14.40;53.40
19060;DHT22;9663;48.996;8.334;2024-02-23T09:36:23;14.50;53.30
19060;DHT22;9663;48.996;8.334;2024-02-23T09:38:50;14.50;53.00
19060;DHT22;9663;48.996;8.334;2024-02-23T09:41:21;14.40;52.20
19060;DHT22;9663;48.996;8.334;2024-02-23T09:43:49;14.40;52.00
19060;DHT22;9663;48.996;8.334;2024-02-23T09:46:16;14.40;52.40
19060;DHT22;9663;48.996;8.334;2024-02-23T09:48:44;14.40;52.50
19060;DHT22;9663;48.996;8.334;2024-02-23T09:51:11;14.30;52.60
19060;DHT22;9663;48.996;8.334;2024-02-23T09:53:38;14.30;52.00
19060;DHT22;9663;48.996;8.334;2024-02-23T09:56:05;14.40;52.50
19060;DHT22;9663;48.996;8.334;2024-02-23T09:58:32;14.50;52.80
19060;DHT22;9663;48.996;8.334;2024-02-23T10:01:02;14.80;51.90
19060;DHT22;9663;48.996;8.334;2024-02-23T10:03:29;14.80;52.20
19060;DHT22;9663;48.996;8.334;2024-02-23T10:05:59;14.90;52.00
19060;DHT22;9663;48.996;8.334;2024-02-23T10:08:27;15.00;51.00
19060;DHT22;9663;48.996;8.334;2024-02-23T10:10:54;14.90;51.50
19060;DHT22;9663;48.996;8.334;2024-02-23T10:13:24;14.90;51.30
19060;DHT22;9663;48.996;8.334;2024-02-23T10:15:50;14.90;51.20
19060;DHT22;9663;48.996;8.334;2024-02-23T10:18:16;14.80;51.30
19060;DHT22;9663;48.996;8.334;2024-02-23T10:20:42;14.80;51.40
19060;DHT22;9663;48.996;8.334;2024-02-23T10:23:08;14.70;51.50
19060;DHT22;9663;48.996;8.334;2024-02-23T10:25:38;14.70;51.70
19060;DHT22;9663;48.996;8.334;2024-02-23T10:28:06;14.80;51.50
19060;DHT22;9663;48.996;8.334;2024-02-23T10:30:33;14.80;51.30
19060;DHT22;9663;48.996;8.334;2024-02-23T10:32:59;14.90;51.10
19060;DHT22;9663;48.996;8.334;2024-02-23T10:35:25;14.90;50.90
19060;DHT22;9663;48.996;8.334;2024-02-23T10:37:55;15.00;50.80
19060;DHT22;9663;48.996;8.334;2024-02-23T10:40:22;15.00;50.60
19060;DHT22;9663;48.996;8.334;2024-02-23T10:42:56;15.00;50.70
19060;DHT22;9663;48.996;8.334;2024-02-23T10:45:28;15.00;50.50
19060;DHT22;9663;48.996;8.334;2024-02-23T10:47:55;15.10;51.20
19060;DHT22;9663;48.996;8.334;2024-02-23T10:50:24;15.20;51.10
19060;DHT22;9663;48.996;8.334;2024-02-23T10:52:52;15.30;50.90
19060;DHT22;9663;48.996;8.334;2024-02-23T10:55:21;15.30;50.90
19060;DHT22;9663;48.996;8.334;2024-02-23T10:57:48;15.40;51.00
19060;DHT22;9663;48.996;8.334;2024-02-23T11:00:16;15.50;51.00
19060;DHT22;9663;48.996;8.334;2024-02-23T11:02:48;15.60;50.60
19060;DHT22;9663;48.996;8.334;2024-02-23T11:05:17;15.70;50.60
19060;DHT22;9663;48.996;8.334;2024-02-23T11:07:46;15.70;50.70
19060;DHT22;9663;48.996;8.334;2024-02-23T11:10:16;15.70;50.30
19060;DHT22;9663;48.996;8.334;2024-02-23T11:12:43;15.70;50.30
19060;DHT22;9663;48.996;8.334;2024-02-23T11:15:09;15.70;50.10
19060;DHT22;9663;48.996;8.334;2024-02-23T11:17:50;15.70;50.40
19060;DHT22;9663;48.996;8.334;2024-02-23T11:20:16;15.70;50.10
19060;DHT22;9663;48.996;8.334;2024-02-23T11:22:41;15.80;49.80
19060;DHT22;9663;48.996;8.334;2024-02-23T11:25:08;15.70;49.70
19060;DHT22;9663;48.996;8.334;2024-02-23T11:27:35;15.60;49.00
19060;DHT22;9663;48.996;8.334;2024-02-23T11:30:04;15.50;49.90
19060;DHT22;9663;48.996;8.334;2024-02-23T11:32:41;15.50;50.30
19060;DHT22;9663;48.996;8.334;2024-02-23T11:35:10;15.60;50.00
19060;DHT22;9663;48.996;8.334;2024-02-23T11:37:53;15.60;50.30
19060;DHT22;9663;48.996;8.334;2024-02-23T11:40:30;15.80;50.50
19060;DHT22;9663;48.996;8.334;2024-02-23T11:42:56;16.30;50.70
19060;DHT22;9663;48.996;8.334;2024-02-23T11:45:28;16.70;50.00
19060;DHT22;9663;48.996;8.334;2024-02-23T11:47:54;16.80;49.10
19060;DHT22;9663;48.996;8.334;2024-02-23T11:50:20;16.90;49.20
19060;DHT22;9663;48.996;8.334;2024-02-23T11:52:46;16.80;49.20
19060;DHT22;9663;48.996;8.334;2024-02-23T11:55:13;16.80;49.50
19060;DHT22;9663;48.996;8.334;2024-02-23T11:57:44;16.90;50.70
19060;DHT22;9663;48.996;8.334;2024-02-23T12:00:10;17.10;49.80
19060;DHT22;9663;48.996;8.334;2024-02-23T12:02:36;17.30;49.40
19060;DHT22;9663;48.996;8.334;2024-02-23T12:05:02;17.30;48.90
19060;DHT22;9663;48.996;8.334;2024-02-23T12:07:29;17.30;48.70
19060;DHT22;9663;48.996;8.334;2024-02-23T12:09:56;17.20;48.40
19060;DHT22;9663;48.996;8.334;2024-02-23T12:12:23;17.10;48.50
19060;DHT22;9663;48.996;8.334;2024-02-23T12:14:50;17.00;48.40
19060;DHT22;9663;48.996;8.334;2024-02-23T12:17:16;16.90;48.60
19060;DHT22;9663;48.996;8.334;2024-02-23T12:19:41;17.00;48.90
19060;DHT22;9663;48.996;8.334;2024-02-23T12:22:08;17.20;49.50
19060;DHT22;9663;48.996;8.334;2024-02-23T12:24:36;17.80;50.60
19060;DHT22;9663;48.996;8.334;2024-02-23T12:27:02;18.70;50.40
19060;DHT22;9663;48.996;8.334;2024-02-23T12:29:28;19.70;49.60
19060;DHT22;9663;48.996;8.334;2024-02-23T12:32:06;20.40;48.60
19060;DHT22;9663;48.996;8.334;2024-02-23T12:34:32;21.20;45.80
19060;DHT22;9663;48.996;8.334;2024-02-23T12:37:02;21.50;46.20
19060;DHT22;9663;48.996;8.334;2024-02-23T12:39:29;21.50;44.10
19060;DHT22;9663;48.996;8.334;2024-02-23T12:41:54;21.30;44.20
19060;DHT22;9663;48.996;8.334;2024-02-23T12:44:22;20.90;43.90
19060;DHT22;9663;48.996;8.334;2024-02-23T12:46:48;20.40;43.80
19060;DHT22;9663;48.996;8.334;2024-02-23T12:49:14;19.80;44.20
19060;DHT22;9663;48.996;8.334;2024-02-23T12:51:41;19.40;44.60
19060;DHT22;9663;48.996;8.334;2024-02-23T12:54:07;18.90;44.60
19060;DHT22;9663;48.996;8.334;2024-02-23T12:56:33;18.50;44.90
19060;DHT22;9663;48.996;8.334;2024-02-23T12:58:58;18.00;45.10
19060;DHT22;9663;48.996;8.334;2024-02-23T13:01:24;17.70;45.30
19060;DHT22;9663;48.996;8.334;2024-02-23T13:03:50;17.40;46.30
19060;DHT22;9663;48.996;8.334;2024-02-23T13:06:16;17.10;45.90
19060;DHT22;9663;48.996;8.334;2024-02-23T13:08:41;16.90;46.40
19060;DHT22;9663;48.996;8.334;2024-02-23T13:11:08;16.80;46.80
19060;DHT22;9663;48.996;8.334;2024-02-23T13:13:35;16.60;46.90
19060;DHT22;9663;48.996;8.334;2024-02-23T13:16:01;16.60;47.30
19060;DHT22;9663;48.996;8.334;2024-02-23T13:18:27;16.60;47.00
19060;DHT22;9663;48.996;8.334;2024-02-23T13:20:53;16.60;47.20
19060;DHT22;9663;48.996;8.334;2024-02-23T13:23:19;16.50;46.50
19060;DHT22;9663;48.996;8.334;2024-02-23T13:25:45;16.50;47.00
19060;DHT22;9663;48.996;8.334;2024-02-23T13:28:11;16.50;47.20
19060;DHT22;9663;48.996;8.334;2024-02-23T13:30:37;16.70;47.50
19060;DHT22;9663;48.996;8.334;2024-02-23T13:33:04;16.70;47.40
19060;DHT22;9663;48.996;8.334;2024-02-23T13:35:31;16.90;47.50
19060;DHT22;9663;48.996;8.334;2024-02-23T13:37:57;17.00;47.30
19060;DHT22;9663;48.996;8.334;2024-02-23T13:40:29;17.10;47.40
19060;DHT22;9663;48.996;8.334;2024-02-23T13:42:56;17.20;47.20
19060;DHT22;9663;48.996;8.334;2024-02-23T13:45:21;17.30;47.10
19060;DHT22;9663;48.996;8.334;2024-02-23T13:48:01;17.40;47.00
19060;DHT22;9663;48.996;8.334;2024-02-23T13:50:28;17.40;46.30
19060;DHT22;9663;48.996;8.334;2024-02-23T13:52:55;17.40;46.60
19060;DHT22;9663;48.996;8.334;2024-02-23T13:55:20;17.40;46.30
19060;DHT22;9663;48.996;8.334;2024-02-23T13:57:47;17.40;46.00
19060;DHT22;9663;48.996;8.334;2024-02-23T14:00:15;17.30;45.50
19060;DHT22;9663;48.996;8.334;2024-02-23T14:02:42;17.20;45.70
19060;DHT22;9663;48.996;8.334;2024-02-23T14:05:08;17.10;46.40
19060;DHT22;9663;48.996;8.334;2024-02-23T14:07:34;17.00;45.90
19060;DHT22;9663;48.996;8.334;2024-02-23T14:10:00;16.90;46.00
19060;DHT22;9663;48.996;8.334;2024-02-23T14:12:26;16.90;46.20
19060;DHT22;9663;48.996;8.334;2024-02-23T14:14:53;16.80;46.10
19060;DHT22;9663;48.996;8.334;2024-02-23T14:17:18;16.80;46.20
19060;DHT22;9663;48.996;8.334;2024-02-23T14:19:44;16.80;46.30
19060;DHT22;9663;48.996;8.334;2024-02-23T14:22:11;16.80;46.30
19060;DHT22;9663;48.996;8.334;2024-02-23T14:24:37;16.80;46.90
19060;DHT22;9663;48.996;8.334;2024-02-23T14:27:02;16.70;46.30
19060;DHT22;9663;48.996;8.334;2024-02-23T14:29:28;16.60;46.30
19060;DHT22;9663;48.996;8.334;2024-02-23T14:31:54;16.60;46.30
19060;DHT22;9663;48.996;8.334;2024-02-23T14:34:20;16.50;46.20
19060;DHT22;9663;48.996;8.334;2024-02-23T14:36:49;16.50;46.40
19060;DHT22;9663;48.996;8.334;2024-02-23T14:39:15;16.40;46.80
19060;DHT22;9663;48.996;8.334;2024-02-23T14:41:41;16.60;46.60
19060;DHT22;9663;48.996;8.334;2024-02-23T14:44:08;16.70;46.90
19060;DHT22;9663;48.996;8.334;2024-02-23T14:46:33;16.70;46.70
19060;DHT22;9663;48.996;8.334;2024-02-23T14:48:59;16.80;46.60
19060;DHT22;9663;48.996;8.334;2024-02-23T14:51:25;16.80;46.40
19060;DHT22;9663;48.996;8.334;2024-02-23T14:53:51;16.80;46.30
19060;DHT22;9663;48.996;8.334;2024-02-23T14:56:16;16.80;46.30
19060;DHT22;9663;48.996;8.334;2024-02-23T14:58:42;16.80;46.40
19060;DHT22;9663;48.996;8.334;2024-02-23T15:01:08;16.80;46.50
19060;DHT22;9663;48.996;8.334;2024-02-23T15:03:34;16.80;46.50
19060;DHT22;9663;48.996;8.334;2024-02-23T15:06:01;17.10;47.00
19060;DHT22;9663;48.996;8.334;2024-02-23T15:08:27;17.50;47.50
19060;DHT22;9663;48.996;8.334;2024-02-23T15:10:53;18.00;47.70
19060;DHT22;9663;48.996;8.334;2024-02-23T15:13:19;18.50;47.10
19060;DHT22;9663;48.996;8.334;2024-02-23T15:15:45;18.90;46.30
19060;DHT22;9663;48.996;8.334;2024-02-23T15:18:11;19.30;45.90
19060;DHT22;9663;48.996;8.334;2024-02-23T15:20:37;19.50;45.80
19060;DHT22;9663;48.996;8.334;2024-02-23T15:23:03;19.60;44.40
19060;DHT22;9663;48.996;8.334;2024-02-23T15:25:29;19.70;44.30
19060;DHT22;9663;48.996;8.334;2024-02-23T15:27:54;19.90;45.00
19060;DHT22;9663;48.996;8.334;2024-02-23T15:30:24;20.30;44.90
19060;DHT22;9663;48.996;8.334;2024-02-23T15:32:50;20.80;45.10
19060;DHT22;9663;48.996;8.334;2024-02-23T15:35:16;21.40;44.30
19060;DHT22;9663;48.996;8.334;2024-02-23T15:37:42;21.90;44.10
19060;DHT22;9663;48.996;8.334;2024-02-23T15:40:08;22.40;43.90